Springdale, Idaho
Current Conditions -  °F | °C
As of 3:53 AM on Monday 20 Oct 2014 (Local Time) from KBYI Reporting Station
Clear Clear  
Wind Chill: 41°   Ceiling: Unl
Heat Index: 44°   Visibility: 10mi
Dew Point: 33°   Wind: 6mph
Humidity: 65%   Direction: 60°ENE
Pressure: 29.97"   Gusts: NA
Location:  42.5011°N, 113.814°W
Report Text: KBYI 200953Z AUTO 06005KT 10SM CLR 07/01 A2997 RMK AO2 SLP119 T00670006
Loading
Personal Weather Stations






























Interactive Weather Map
Tropical Storm Tracking
New forecast layout! Learn more

10-Day Weather Forecast

Advertisements
Track Severe Weather on mobile